sensor_id;sensor_type;location;lat;lon;timestamp;pressure;altitude;pressure_sealevel;temperature;humidity
15314;BME280;7757;52.626;4.746;2023-10-31T00:00:45;99454.81;;;17.40;74.11
15314;BME280;7757;52.626;4.746;2023-10-31T00:03:11;99474.53;;;17.35;73.23
15314;BME280;7757;52.626;4.746;2023-10-31T00:05:36;99461.03;;;17.40;73.69
15314;BME280;7757;52.626;4.746;2023-10-31T00:08:02;99460.53;;;17.43;73.93
15314;BME280;7757;52.626;4.746;2023-10-31T00:10:28;99445.34;;;17.37;73.62
15314;BME280;7757;52.626;4.746;2023-10-31T00:12:53;99466.50;;;17.50;73.67
15314;BME280;7757;52.626;4.746;2023-10-31T00:15:20;99456.47;;;17.46;73.47
15314;BME280;7757;52.626;4.746;2023-10-31T00:17:45;99456.72;;;17.39;73.48
15314;BME280;7757;52.626;4.746;2023-10-31T00:20:10;99454.59;;;17.46;73.54
15314;BME280;7757;52.626;4.746;2023-10-31T00:22:36;99442.41;;;17.44;73.34
15314;BME280;7757;52.626;4.746;2023-10-31T00:25:01;99450.22;;;17.40;73.67
15314;BME280;7757;52.626;4.746;2023-10-31T00:27:26;99455.13;;;17.48;73.76
15314;BME280;7757;52.626;4.746;2023-10-31T00:29:51;99438.06;;;17.33;73.67
15314;BME280;7757;52.626;4.746;2023-10-31T00:32:17;99451.59;;;17.43;73.70
15314;BME280;7757;52.626;4.746;2023-10-31T00:34:42;99441.28;;;17.29;73.11
15314;BME280;7757;52.626;4.746;2023-10-31T00:37:07;99453.75;;;17.36;73.56
15314;BME280;7757;52.626;4.746;2023-10-31T00:39:33;99455.06;;;17.33;73.69
15314;BME280;7757;52.626;4.746;2023-10-31T00:41:59;99456.47;;;17.41;73.60
15314;BME280;7757;52.626;4.746;2023-10-31T00:44:25;99463.47;;;17.37;73.63
15314;BME280;7757;52.626;4.746;2023-10-31T00:46:51;99440.47;;;17.29;73.66
15314;BME280;7757;52.626;4.746;2023-10-31T00:49:17;99457.50;;;17.35;73.83
15314;BME280;7757;52.626;4.746;2023-10-31T00:51:42;99464.03;;;17.44;73.79
15314;BME280;7757;52.626;4.746;2023-10-31T00:54:08;99408.47;;;17.06;73.66
15314;BME280;7757;52.626;4.746;2023-10-31T00:56:33;99464.81;;;17.34;73.83
15314;BME280;7757;52.626;4.746;2023-10-31T00:59:00;99465.34;;;17.36;73.70
15314;BME280;7757;52.626;4.746;2023-10-31T01:01:25;99472.13;;;17.39;73.62
15314;BME280;7757;52.626;4.746;2023-10-31T01:03:50;99476.44;;;17.40;73.81
15314;BME280;7757;52.626;4.746;2023-10-31T01:06:16;99475.91;;;17.38;73.35
15314;BME280;7757;52.626;4.746;2023-10-31T01:08:41;99479.44;;;17.38;73.53
15314;BME280;7757;52.626;4.746;2023-10-31T01:11:06;99476.09;;;17.21;73.82
15314;BME280;7757;52.626;4.746;2023-10-31T01:13:31;99483.09;;;17.17;73.81
15314;BME280;7757;52.626;4.746;2023-10-31T01:15:57;99484.31;;;16.94;73.42
15314;BME280;7757;52.626;4.746;2023-10-31T01:18:22;99490.81;;;16.98;74.07
15314;BME280;7757;52.626;4.746;2023-10-31T01:20:47;99437.91;;;16.60;74.33
15314;BME280;7757;52.626;4.746;2023-10-31T01:23:13;99488.94;;;17.04;74.13
15314;BME280;7757;52.626;4.746;2023-10-31T01:25:38;99496.44;;;16.92;74.30
15314;BME280;7757;52.626;4.746;2023-10-31T01:28:05;99502.16;;;16.63;74.05
15314;BME280;7757;52.626;4.746;2023-10-31T01:30:32;99510.09;;;16.75;74.69
15314;BME280;7757;52.626;4.746;2023-10-31T01:32:57;99503.97;;;16.90;74.04
15314;BME280;7757;52.626;4.746;2023-10-31T01:35:22;99513.41;;;16.82;73.97
15314;BME280;7757;52.626;4.746;2023-10-31T01:37:48;99512.78;;;16.75;74.98
15314;BME280;7757;52.626;4.746;2023-10-31T01:40:13;99520.13;;;16.80;74.40
15314;BME280;7757;52.626;4.746;2023-10-31T01:42:40;99466.97;;;16.22;75.17
15314;BME280;7757;52.626;4.746;2023-10-31T01:45:07;99503.38;;;16.51;74.49
15314;BME280;7757;52.626;4.746;2023-10-31T01:47:32;99511.75;;;16.49;74.88
15314;BME280;7757;52.626;4.746;2023-10-31T01:49:59;99518.88;;;16.07;75.30
15314;BME280;7757;52.626;4.746;2023-10-31T01:52:25;99525.06;;;16.56;75.17
15314;BME280;7757;52.626;4.746;2023-10-31T01:54:51;99529.00;;;16.75;74.55
15314;BME280;7757;52.626;4.746;2023-10-31T01:57:18;99537.59;;;16.72;74.30
15314;BME280;7757;52.626;4.746;2023-10-31T01:59:44;99537.41;;;16.52;74.58
15314;BME280;7757;52.626;4.746;2023-10-31T02:02:11;99528.03;;;16.33;73.70
15314;BME280;7757;52.626;4.746;2023-10-31T02:04:37;99537.97;;;16.54;74.35
15314;BME280;7757;52.626;4.746;2023-10-31T02:07:02;99539.44;;;16.40;74.15
15314;BME280;7757;52.626;4.746;2023-10-31T02:09:29;99538.19;;;16.21;74.81
15314;BME280;7757;52.626;4.746;2023-10-31T02:11:55;99541.91;;;16.41;73.86
15314;BME280;7757;52.626;4.746;2023-10-31T02:14:24;99543.47;;;16.64;74.09
15314;BME280;7757;52.626;4.746;2023-10-31T02:16:49;99502.16;;;16.63;73.19
15314;BME280;7757;52.626;4.746;2023-10-31T02:19:19;99530.75;;;16.91;73.21
15314;BME280;7757;52.626;4.746;2023-10-31T02:21:45;99544.59;;;17.05;73.19
15314;BME280;7757;52.626;4.746;2023-10-31T02:24:11;99507.38;;;16.75;73.21
15314;BME280;7757;52.626;4.746;2023-10-31T02:26:36;99543.75;;;16.99;73.64
15314;BME280;7757;52.626;4.746;2023-10-31T02:29:03;99545.09;;;16.97;73.55
15314;BME280;7757;52.626;4.746;2023-10-31T02:31:29;99547.59;;;17.03;73.00
15314;BME280;7757;52.626;4.746;2023-10-31T02:33:56;99542.97;;;17.04;73.26
15314;BME280;7757;52.626;4.746;2023-10-31T02:36:22;99521.72;;;16.76;73.14
15314;BME280;7757;52.626;4.746;2023-10-31T02:38:48;99524.00;;;16.94;73.42
15314;BME280;7757;52.626;4.746;2023-10-31T02:41:14;99541.88;;;17.00;73.27
15314;BME280;7757;52.626;4.746;2023-10-31T02:43:41;99506.66;;;16.53;74.06
15314;BME280;7757;52.626;4.746;2023-10-31T02:46:06;99543.13;;;16.87;73.87
15314;BME280;7757;52.626;4.746;2023-10-31T02:48:32;99520.97;;;16.85;73.54
15314;BME280;7757;52.626;4.746;2023-10-31T02:51:07;99546.97;;;16.96;73.71
15314;BME280;7757;52.626;4.746;2023-10-31T02:53:34;99540.44;;;16.87;73.25
15314;BME280;7757;52.626;4.746;2023-10-31T02:56:00;99557.06;;;16.74;73.49
15314;BME280;7757;52.626;4.746;2023-10-31T02:58:27;99552.63;;;16.95;73.44
15314;BME280;7757;52.626;4.746;2023-10-31T03:00:52;99556.63;;;16.87;73.38
15314;BME280;7757;52.626;4.746;2023-10-31T03:03:20;99548.63;;;16.97;73.15
15314;BME280;7757;52.626;4.746;2023-10-31T03:05:45;99553.00;;;17.03;73.50
15314;BME280;7757;52.626;4.746;2023-10-31T03:08:11;99533.66;;;16.85;73.26
15314;BME280;7757;52.626;4.746;2023-10-31T03:10:38;99565.41;;;17.04;72.93
15314;BME280;7757;52.626;4.746;2023-10-31T03:13:03;99553.13;;;16.87;73.54
15314;BME280;7757;52.626;4.746;2023-10-31T03:15:33;99554.53;;;16.94;73.60
15314;BME280;7757;52.626;4.746;2023-10-31T03:18:00;99566.31;;;16.83;73.83
15314;BME280;7757;52.626;4.746;2023-10-31T03:20:26;99560.69;;;16.90;73.76
15314;BME280;7757;52.626;4.746;2023-10-31T03:22:51;99567.00;;;17.00;72.65
15314;BME280;7757;52.626;4.746;2023-10-31T03:25:17;99565.78;;;16.86;73.53
15314;BME280;7757;52.626;4.746;2023-10-31T03:27:42;99574.16;;;16.85;73.47
15314;BME280;7757;52.626;4.746;2023-10-31T03:30:07;99566.66;;;16.92;73.24
15314;BME280;7757;52.626;4.746;2023-10-31T03:32:33;99573.97;;;16.91;73.82
15314;BME280;7757;52.626;4.746;2023-10-31T03:34:58;99575.03;;;16.90;73.29
15314;BME280;7757;52.626;4.746;2023-10-31T03:37:25;99581.09;;;16.76;73.33
15314;BME280;7757;52.626;4.746;2023-10-31T03:39:50;99587.72;;;16.90;72.95
15314;BME280;7757;52.626;4.746;2023-10-31T03:42:15;99583.66;;;16.92;73.68
15314;BME280;7757;52.626;4.746;2023-10-31T03:44:42;99581.53;;;16.94;73.50
15314;BME280;7757;52.626;4.746;2023-10-31T03:47:07;99589.38;;;16.96;73.29
15314;BME280;7757;52.626;4.746;2023-10-31T03:49:33;99590.94;;;16.60;73.20
15314;BME280;7757;52.626;4.746;2023-10-31T03:51:59;99592.81;;;16.86;73.66
15314;BME280;7757;52.626;4.746;2023-10-31T03:54:25;99592.78;;;16.81;73.50
15314;BME280;7757;52.626;4.746;2023-10-31T03:56:50;99606.06;;;16.88;73.65
15314;BME280;7757;52.626;4.746;2023-10-31T03:59:17;99574.72;;;16.87;73.03
15314;BME280;7757;52.626;4.746;2023-10-31T04:01:43;99599.38;;;16.95;73.22
15314;BME280;7757;52.626;4.746;2023-10-31T04:04:08;99602.56;;;16.92;73.27
15314;BME280;7757;52.626;4.746;2023-10-31T04:06:35;99612.09;;;17.00;73.09
15314;BME280;7757;52.626;4.746;2023-10-31T04:09:03;99608.28;;;16.96;73.44
15314;BME280;7757;52.626;4.746;2023-10-31T04:11:28;99612.78;;;16.85;72.95
15314;BME280;7757;52.626;4.746;2023-10-31T04:13:53;99613.69;;;16.96;73.18
15314;BME280;7757;52.626;4.746;2023-10-31T04:16:19;99591.06;;;16.70;73.27
15314;BME280;7757;52.626;4.746;2023-10-31T04:18:44;99615.75;;;16.84;73.07
15314;BME280;7757;52.626;4.746;2023-10-31T04:21:09;99616.56;;;16.84;72.73
15314;BME280;7757;52.626;4.746;2023-10-31T04:23:35;99592.47;;;16.78;73.22
15314;BME280;7757;52.626;4.746;2023-10-31T04:26:03;99618.34;;;17.00;73.06
15314;BME280;7757;52.626;4.746;2023-10-31T04:28:28;99606.91;;;16.61;73.46
15314;BME280;7757;52.626;4.746;2023-10-31T04:30:55;99604.59;;;16.75;73.36
15314;BME280;7757;52.626;4.746;2023-10-31T04:33:20;99559.97;;;16.41;73.49
15314;BME280;7757;52.626;4.746;2023-10-31T04:35:48;99620.66;;;16.92;73.19
15314;BME280;7757;52.626;4.746;2023-10-31T04:38:14;99618.28;;;16.95;73.08
15314;BME280;7757;52.626;4.746;2023-10-31T04:40:41;99614.38;;;16.81;73.19
15314;BME280;7757;52.626;4.746;2023-10-31T04:43:06;99621.25;;;16.94;73.22
15314;BME280;7757;52.626;4.746;2023-10-31T04:45:31;99572.91;;;16.65;72.86
15314;BME280;7757;52.626;4.746;2023-10-31T04:47:57;99619.56;;;16.88;72.90
15314;BME280;7757;52.626;4.746;2023-10-31T04:50:22;99622.44;;;16.76;73.04
15314;BME280;7757;52.626;4.746;2023-10-31T04:52:49;99631.13;;;16.83;73.25
15314;BME280;7757;52.626;4.746;2023-10-31T04:55:14;99628.38;;;16.78;73.08
15314;BME280;7757;52.626;4.746;2023-10-31T04:57:39;99633.38;;;16.91;73.00
15314;BME280;7757;52.626;4.746;2023-10-31T05:00:05;99624.28;;;16.70;73.48
15314;BME280;7757;52.626;4.746;2023-10-31T05:02:34;99589.84;;;16.56;73.04
15314;BME280;7757;52.626;4.746;2023-10-31T05:04:59;99611.16;;;16.84;73.01
15314;BME280;7757;52.626;4.746;2023-10-31T05:07:25;99578.81;;;16.62;72.80
15314;BME280;7757;52.626;4.746;2023-10-31T05:09:50;99635.59;;;16.99;72.67
15314;BME280;7757;52.626;4.746;2023-10-31T05:12:15;99641.47;;;16.91;73.06
15314;BME280;7757;52.626;4.746;2023-10-31T05:14:41;99643.16;;;16.97;72.80
15314;BME280;7757;52.626;4.746;2023-10-31T05:17:06;99617.41;;;16.90;72.83
15314;BME280;7757;52.626;4.746;2023-10-31T05:19:31;99649.34;;;16.98;72.75
15314;BME280;7757;52.626;4.746;2023-10-31T05:21:57;99630.88;;;16.58;73.13
15314;BME280;7757;52.626;4.746;2023-10-31T05:24:23;99658.28;;;16.71;73.44
15314;BME280;7757;52.626;4.746;2023-10-31T05:26:50;99649.66;;;16.74;73.36
15314;BME280;7757;52.626;4.746;2023-10-31T05:29:15;99660.38;;;16.91;72.71
15314;BME280;7757;52.626;4.746;2023-10-31T05:31:41;99667.50;;;16.76;73.54
15314;BME280;7757;52.626;4.746;2023-10-31T05:34:08;99659.22;;;16.82;73.38
15314;BME280;7757;52.626;4.746;2023-10-31T05:36:33;99663.25;;;16.80;73.14
15314;BME280;7757;52.626;4.746;2023-10-31T05:38:58;99670.97;;;16.49;73.51
15314;BME280;7757;52.626;4.746;2023-10-31T05:41:24;99656.00;;;16.58;73.56
15314;BME280;7757;52.626;4.746;2023-10-31T05:43:49;99663.31;;;16.63;73.13
15314;BME280;7757;52.626;4.746;2023-10-31T05:46:15;99677.75;;;16.73;72.99
15314;BME280;7757;52.626;4.746;2023-10-31T05:48:42;99690.66;;;16.93;73.06
15314;BME280;7757;52.626;4.746;2023-10-31T05:51:15;99694.69;;;16.91;73.03
15314;BME280;7757;52.626;4.746;2023-10-31T05:53:44;99706.34;;;16.96;72.71
15314;BME280;7757;52.626;4.746;2023-10-31T05:56:14;99705.44;;;16.86;73.61
15314;BME280;7757;52.626;4.746;2023-10-31T05:58:40;99698.53;;;16.73;73.04
15314;BME280;7757;52.626;4.746;2023-10-31T06:01:06;99705.53;;;16.96;72.63
15314;BME280;7757;52.626;4.746;2023-10-31T06:03:33;99716.88;;;16.98;72.55
15314;BME280;7757;52.626;4.746;2023-10-31T06:05:58;99715.97;;;16.87;72.71
15314;BME280;7757;52.626;4.746;2023-10-31T06:08:24;99689.44;;;16.79;72.29
15314;BME280;7757;52.626;4.746;2023-10-31T06:10:53;99717.09;;;16.91;72.88
15314;BME280;7757;52.626;4.746;2023-10-31T06:13:19;99718.00;;;16.75;73.04
15314;BME280;7757;52.626;4.746;2023-10-31T06:15:44;99732.28;;;16.97;72.58
15314;BME280;7757;52.626;4.746;2023-10-31T06:18:09;99738.25;;;16.99;72.42
15314;BME280;7757;52.626;4.746;2023-10-31T06:20:36;99728.19;;;16.95;72.38
15314;BME280;7757;52.626;4.746;2023-10-31T06:23:02;99723.44;;;16.80;72.86
15314;BME280;7757;52.626;4.746;2023-10-31T06:25:30;99733.53;;;16.90;72.93
15314;BME280;7757;52.626;4.746;2023-10-31T06:27:55;99731.13;;;16.88;72.83
15314;BME280;7757;52.626;4.746;2023-10-31T06:30:21;99747.16;;;16.73;72.14
15314;BME280;7757;52.626;4.746;2023-10-31T06:32:46;99756.81;;;16.69;72.71
15314;BME280;7757;52.626;4.746;2023-10-31T06:35:11;99739.81;;;16.30;73.23
15314;BME280;7757;52.626;4.746;2023-10-31T06:37:37;99747.19;;;16.56;73.27
15314;BME280;7757;52.626;4.746;2023-10-31T06:40:04;99758.41;;;16.48;73.44
15314;BME280;7757;52.626;4.746;2023-10-31T06:42:30;99766.09;;;16.56;73.55
15314;BME280;7757;52.626;4.746;2023-10-31T06:44:55;99771.50;;;16.56;73.13
15314;BME280;7757;52.626;4.746;2023-10-31T06:47:21;99775.84;;;16.57;73.28
15314;BME280;7757;52.626;4.746;2023-10-31T06:49:47;99761.00;;;16.38;73.62
15314;BME280;7757;52.626;4.746;2023-10-31T06:52:13;99760.59;;;16.51;73.12
15314;BME280;7757;52.626;4.746;2023-10-31T06:54:39;99793.00;;;16.68;73.18
15314;BME280;7757;52.626;4.746;2023-10-31T06:57:05;99799.13;;;16.63;73.54
15314;BME280;7757;52.626;4.746;2023-10-31T06:59:30;99792.66;;;16.64;73.66
15314;BME280;7757;52.626;4.746;2023-10-31T07:01:56;99795.78;;;16.78;74.40
15314;BME280;7757;52.626;4.746;2023-10-31T07:04:21;99795.94;;;16.88;73.95
15314;BME280;7757;52.626;4.746;2023-10-31T07:06:46;99797.81;;;16.88;73.62
15314;BME280;7757;52.626;4.746;2023-10-31T07:09:12;99785.50;;;16.97;73.21
15314;BME280;7757;52.626;4.746;2023-10-31T07:11:37;99783.31;;;16.94;73.62
15314;BME280;7757;52.626;4.746;2023-10-31T07:14:03;99798.31;;;17.06;73.03
15314;BME280;7757;52.626;4.746;2023-10-31T07:16:29;99804.81;;;17.10;73.62
15314;BME280;7757;52.626;4.746;2023-10-31T07:18:54;99774.72;;;17.02;73.18
15314;BME280;7757;52.626;4.746;2023-10-31T07:21:20;99793.78;;;17.12;73.18
15314;BME280;7757;52.626;4.746;2023-10-31T07:23:45;99811.00;;;17.33;73.33
15314;BME280;7757;52.626;4.746;2023-10-31T07:26:11;99816.47;;;17.38;73.22
15314;BME280;7757;52.626;4.746;2023-10-31T07:28:36;99811.91;;;17.43;73.20
15314;BME280;7757;52.626;4.746;2023-10-31T07:31:04;99806.47;;;17.38;72.51
15314;BME280;7757;52.626;4.746;2023-10-31T07:33:30;99817.44;;;17.53;72.83
15314;BME280;7757;52.626;4.746;2023-10-31T07:35:55;99828.03;;;17.60;72.78
15314;BME280;7757;52.626;4.746;2023-10-31T07:38:20;99832.16;;;17.62;72.64
15314;BME280;7757;52.626;4.746;2023-10-31T07:40:46;99832.75;;;17.69;72.79
15314;BME280;7757;52.626;4.746;2023-10-31T07:43:13;99849.31;;;17.78;72.24
15314;BME280;7757;52.626;4.746;2023-10-31T07:45:38;99847.44;;;17.78;72.70
15314;BME280;7757;52.626;4.746;2023-10-31T07:48:05;99848.50;;;17.77;72.41
15314;BME280;7757;52.626;4.746;2023-10-31T07:50:31;99859.31;;;17.77;72.78
15314;BME280;7757;52.626;4.746;2023-10-31T07:52:56;99855.31;;;17.80;72.75
15314;BME280;7757;52.626;4.746;2023-10-31T07:55:21;99859.06;;;17.79;72.70
15314;BME280;7757;52.626;4.746;2023-10-31T07:57:47;99859.31;;;17.77;72.60
15314;BME280;7757;52.626;4.746;2023-10-31T08:00:13;99860.91;;;17.73;72.85
15314;BME280;7757;52.626;4.746;2023-10-31T08:02:38;99859.03;;;17.74;72.83
15314;BME280;7757;52.626;4.746;2023-10-31T08:05:04;99869.84;;;17.74;72.97
15314;BME280;7757;52.626;4.746;2023-10-31T08:07:29;99854.88;;;17.66;72.62
15314;BME280;7757;52.626;4.746;2023-10-31T08:09:58;99872.28;;;17.75;73.02
15314;BME280;7757;52.626;4.746;2023-10-31T08:12:25;99880.50;;;17.86;72.32
15314;BME280;7757;52.626;4.746;2023-10-31T08:14:50;99861.75;;;17.74;72.58
15314;BME280;7757;52.626;4.746;2023-10-31T08:17:16;99863.03;;;17.71;72.71
15314;BME280;7757;52.626;4.746;2023-10-31T08:19:41;99873.97;;;17.81;72.58
15314;BME280;7757;52.626;4.746;2023-10-31T08:22:07;99884.88;;;17.92;72.75
15314;BME280;7757;52.626;4.746;2023-10-31T08:24:32;99874.22;;;17.80;72.57
15314;BME280;7757;52.626;4.746;2023-10-31T08:27:01;99891.06;;;17.87;72.59
15314;BME280;7757;52.626;4.746;2023-10-31T08:29:27;99870.63;;;17.74;72.88
15314;BME280;7757;52.626;4.746;2023-10-31T08:31:52;99883.75;;;17.88;72.63
15314;BME280;7757;52.626;4.746;2023-10-31T08:34:17;99890.53;;;17.90;72.51
15314;BME280;7757;52.626;4.746;2023-10-31T08:36:43;99893.22;;;17.85;72.36
15314;BME280;7757;52.626;4.746;2023-10-31T08:39:08;99897.00;;;17.89;72.69
15314;BME280;7757;52.626;4.746;2023-10-31T08:41:33;99897.84;;;17.90;72.40
15314;BME280;7757;52.626;4.746;2023-10-31T08:43:59;99903.50;;;17.88;72.64
15314;BME280;7757;52.626;4.746;2023-10-31T08:46:28;99906.81;;;17.95;72.34
15314;BME280;7757;52.626;4.746;2023-10-31T08:48:54;99891.88;;;17.88;72.45
15314;BME280;7757;52.626;4.746;2023-10-31T08:51:19;99915.50;;;17.97;72.36
15314;BME280;7757;52.626;4.746;2023-10-31T08:53:45;99918.44;;;17.96;72.38
15314;BME280;7757;52.626;4.746;2023-10-31T08:56:11;99919.03;;;17.98;72.61
15314;BME280;7757;52.626;4.746;2023-10-31T08:58:38;99917.63;;;17.95;72.31
15314;BME280;7757;52.626;4.746;2023-10-31T09:01:04;99919.81;;;17.98;72.38
15314;BME280;7757;52.626;4.746;2023-10-31T09:03:29;99919.19;;;17.86;72.12
15314;BME280;7757;52.626;4.746;2023-10-31T09:05:54;99922.13;;;17.84;72.29
15314;BME280;7757;52.626;4.746;2023-10-31T09:08:20;99931.63;;;17.87;72.46
15314;BME280;7757;52.626;4.746;2023-10-31T09:10:45;99914.97;;;17.68;72.11
15314;BME280;7757;52.626;4.746;2023-10-31T09:13:11;99947.19;;;17.75;72.22
15314;BME280;7757;52.626;4.746;2023-10-31T09:15:37;99940.44;;;17.77;72.41
15314;BME280;7757;52.626;4.746;2023-10-31T09:18:04;99939.44;;;17.83;71.87
15314;BME280;7757;52.626;4.746;2023-10-31T09:20:30;99948.56;;;17.77;71.99
15314;BME280;7757;52.626;4.746;2023-10-31T09:23:00;99957.81;;;17.81;71.99
15314;BME280;7757;52.626;4.746;2023-10-31T09:25:25;99958.16;;;17.90;72.19
15314;BME280;7757;52.626;4.746;2023-10-31T09:27:51;99945.63;;;17.79;72.19
15314;BME280;7757;52.626;4.746;2023-10-31T09:30:16;99970.94;;;17.95;72.53
15314;BME280;7757;52.626;4.746;2023-10-31T09:32:43;99977.75;;;17.97;72.21
15314;BME280;7757;52.626;4.746;2023-10-31T09:35:09;99962.25;;;17.93;72.25
15314;BME280;7757;52.626;4.746;2023-10-31T09:37:34;99962.16;;;17.82;71.50
15314;BME280;7757;52.626;4.746;2023-10-31T09:40:00;99987.69;;;17.92;72.44
15314;BME280;7757;52.626;4.746;2023-10-31T09:42:25;99984.41;;;17.90;72.13
15314;BME280;7757;52.626;4.746;2023-10-31T09:44:51;99983.84;;;17.88;72.01
15314;BME280;7757;52.626;4.746;2023-10-31T09:47:19;99991.66;;;17.84;72.26
15314;BME280;7757;52.626;4.746;2023-10-31T09:49:45;100000.34;;;17.86;72.18
15314;BME280;7757;52.626;4.746;2023-10-31T09:52:11;99997.38;;;17.88;72.04
15314;BME280;7757;52.626;4.746;2023-10-31T09:54:37;99999.53;;;17.86;71.72
15314;BME280;7757;52.626;4.746;2023-10-31T09:57:03;100002.22;;;17.86;72.44
15314;BME280;7757;52.626;4.746;2023-10-31T09:59:29;99993.75;;;17.77;72.12
15314;BME280;7757;52.626;4.746;2023-10-31T10:01:54;100011.69;;;17.83;72.22
15314;BME280;7757;52.626;4.746;2023-10-31T10:04:20;100002.16;;;17.80;72.37
15314;BME280;7757;52.626;4.746;2023-10-31T10:06:59;100012.84;;;17.92;72.15
15314;BME280;7757;52.626;4.746;2023-10-31T10:09:25;99993.53;;;17.83;71.75
15314;BME280;7757;52.626;4.746;2023-10-31T10:11:52;100018.06;;;17.99;71.56
15314;BME280;7757;52.626;4.746;2023-10-31T10:14:18;100017.81;;;18.00;71.61
15314;BME280;7757;52.626;4.746;2023-10-31T10:16:44;100022.91;;;17.97;71.78
15314;BME280;7757;52.626;4.746;2023-10-31T10:19:18;99988.06;;;17.78;71.50
15314;BME280;7757;52.626;4.746;2023-10-31T10:21:51;100029.69;;;17.99;71.58
15314;BME280;7757;52.626;4.746;2023-10-31T10:24:18;100025.63;;;17.97;71.55
15314;BME280;7757;52.626;4.746;2023-10-31T10:26:44;100025.06;;;17.95;71.38
15314;BME280;7757;52.626;4.746;2023-10-31T10:29:12;100025.28;;;17.93;71.45
15314;BME280;7757;52.626;4.746;2023-10-31T10:31:38;100030.97;;;17.92;71.57
15314;BME280;7757;52.626;4.746;2023-10-31T10:34:05;100021.53;;;17.94;71.41
15314;BME280;7757;52.626;4.746;2023-10-31T10:36:32;100019.66;;;17.95;71.58
15314;BME280;7757;52.626;4.746;2023-10-31T10:39:00;100018.00;;;17.94;71.22
15314;BME280;7757;52.626;4.746;2023-10-31T10:41:27;100022.34;;;17.95;71.11
15314;BME280;7757;52.626;4.746;2023-10-31T10:46:27;100027.50;;;17.96;71.03
15314;BME280;7757;52.626;4.746;2023-10-31T10:48:55;100033.19;;;17.95;71.53
15314;BME280;7757;52.626;4.746;2023-10-31T10:54:11;100034.25;;;17.94;71.12
15314;BME280;7757;52.626;4.746;2023-10-31T10:56:44;100032.34;;;17.94;70.67
15314;BME280;7757;52.626;4.746;2023-10-31T10:59:20;100036.63;;;17.90;70.92
15314;BME280;7757;52.626;4.746;2023-10-31T11:01:46;100038.59;;;17.95;71.00
15314;BME280;7757;52.626;4.746;2023-10-31T11:04:13;100036.75;;;18.00;70.59
15314;BME280;7757;52.626;4.746;2023-10-31T11:06:40;100029.97;;;17.98;69.81
15314;BME280;7757;52.626;4.746;2023-10-31T11:09:06;100043.50;;;17.98;68.88
15314;BME280;7757;52.626;4.746;2023-10-31T11:11:34;100043.00;;;18.01;67.36
15314;BME280;7757;52.626;4.746;2023-10-31T11:14:01;100036.25;;;18.03;68.55
15314;BME280;7757;52.626;4.746;2023-10-31T11:16:41;100040.53;;;17.99;66.50
15314;BME280;7757;52.626;4.746;2023-10-31T11:19:08;100036.38;;;17.92;68.72
15314;BME280;7757;52.626;4.746;2023-10-31T11:21:35;100043.28;;;18.04;69.37
15314;BME280;7757;52.626;4.746;2023-10-31T11:24:01;100028.50;;;17.90;69.06
15314;BME280;7757;52.626;4.746;2023-10-31T11:26:27;100049.19;;;18.01;69.48
15314;BME280;7757;52.626;4.746;2023-10-31T11:29:03;100049.50;;;18.05;69.83
15314;BME280;7757;52.626;4.746;2023-10-31T11:31:28;100049.28;;;18.06;69.91
15314;BME280;7757;52.626;4.746;2023-10-31T11:33:54;100037.75;;;17.94;68.38
15314;BME280;7757;52.626;4.746;2023-10-31T11:36:20;100045.47;;;18.07;69.61
15314;BME280;7757;52.626;4.746;2023-10-31T11:38:45;100041.97;;;18.07;69.95
15314;BME280;7757;52.626;4.746;2023-10-31T11:41:11;100052.03;;;18.11;69.51
15314;BME280;7757;52.626;4.746;2023-10-31T11:46:05;100054.19;;;18.09;69.96
15314;BME280;7757;52.626;4.746;2023-10-31T11:48:51;100061.19;;;18.10;69.90
15314;BME280;7757;52.626;4.746;2023-10-31T11:51:17;100060.66;;;18.08;70.27
15314;BME280;7757;52.626;4.746;2023-10-31T11:53:43;100073.13;;;18.09;70.23
15314;BME280;7757;52.626;4.746;2023-10-31T11:56:10;100063.41;;;18.13;70.13
15314;BME280;7757;52.626;4.746;2023-10-31T11:58:37;100061.00;;;18.17;69.84
15314;BME280;7757;52.626;4.746;2023-10-31T12:01:04;100066.09;;;18.13;69.94
15314;BME280;7757;52.626;4.746;2023-10-31T12:03:43;100053.81;;;18.01;70.25
15314;BME280;7757;52.626;4.746;2023-10-31T12:06:13;100048.94;;;18.03;70.05
15314;BME280;7757;52.626;4.746;2023-10-31T12:08:40;100066.09;;;18.13;70.37
15314;BME280;7757;52.626;4.746;2023-10-31T12:11:18;100068.56;;;18.15;70.04
15314;BME280;7757;52.626;4.746;2023-10-31T12:13:56;100068.25;;;18.11;70.25
15314;BME280;7757;52.626;4.746;2023-10-31T12:16:32;100065.03;;;18.14;70.35
15314;BME280;7757;52.626;4.746;2023-10-31T12:19:01;100068.81;;;18.13;70.03
15314;BME280;7757;52.626;4.746;2023-10-31T12:21:39;100073.16;;;18.14;70.41
15314;BME280;7757;52.626;4.746;2023-10-31T12:24:07;100074.00;;;18.15;70.19
15314;BME280;7757;52.626;4.746;2023-10-31T12:26:34;100072.03;;;18.10;70.27
15314;BME280;7757;52.626;4.746;2023-10-31T12:31:31;100075.88;;;18.14;70.28
15314;BME280;7757;52.626;4.746;2023-10-31T12:33:57;100076.44;;;18.16;70.39
15314;BME280;7757;52.626;4.746;2023-10-31T12:36:23;100076.44;;;18.16;70.37
15314;BME280;7757;52.626;4.746;2023-10-31T12:38:50;100079.97;;;18.17;70.30
15314;BME280;7757;52.626;4.746;2023-10-31T12:41:15;100077.81;;;18.19;70.43
15314;BME280;7757;52.626;4.746;2023-10-31T12:43:42;100076.75;;;18.20;69.07
15314;BME280;7757;52.626;4.746;2023-10-31T12:46:27;100085.41;;;18.22;70.17
15314;BME280;7757;52.626;4.746;2023-10-31T12:48:56;100087.00;;;18.18;70.17
15314;BME280;7757;52.626;4.746;2023-10-31T12:51:22;100063.03;;;18.05;70.09
15314;BME280;7757;52.626;4.746;2023-10-31T12:53:49;100084.31;;;18.18;70.27
15314;BME280;7757;52.626;4.746;2023-10-31T12:56:34;100088.13;;;18.22;70.02
15314;BME280;7757;52.626;4.746;2023-10-31T12:59:00;100085.72;;;18.25;70.04
15314;BME280;7757;52.626;4.746;2023-10-31T13:01:25;100051.97;;;18.06;69.71
15314;BME280;7757;52.626;4.746;2023-10-31T13:03:51;100056.59;;;18.11;69.66
15314;BME280;7757;52.626;4.746;2023-10-31T13:06:18;100077.88;;;18.24;70.03
15314;BME280;7757;52.626;4.746;2023-10-31T13:08:45;100060.97;;;18.12;70.15
15314;BME280;7757;52.626;4.746;2023-10-31T13:11:11;100086.25;;;18.22;69.99
15314;BME280;7757;52.626;4.746;2023-10-31T13:13:37;100083.53;;;18.22;69.80